createdAt,value
2017-03-11T00:00:30.937Z,1026.23
2017-03-11T00:01:11.432Z,1026.21
2017-03-11T00:01:51.945Z,1026.23
2017-03-11T00:02:32.474Z,1026.22
2017-03-11T00:03:12.919Z,1026.25
2017-03-11T00:03:53.421Z,1026.24
2017-03-11T00:04:33.918Z,1026.23
2017-03-11T00:05:14.379Z,1026.21
2017-03-11T00:05:54.829Z,1026.18
2017-03-11T00:06:35.326Z,1026.22
2017-03-11T00:07:15.841Z,1026.19
2017-03-11T00:07:56.315Z,1026.2
2017-03-11T00:08:36.801Z,1026.15
2017-03-11T00:09:17.267Z,1026.23
2017-03-11T00:09:57.767Z,1026.23
2017-03-11T00:10:38.232Z,1026.23
2017-03-11T00:11:18.704Z,1026.19
2017-03-11T00:11:59.200Z,1026.22
2017-03-11T00:12:39.669Z,1026.19
2017-03-11T00:13:20.169Z,1026.21
2017-03-11T00:14:00.639Z,1026.2
2017-03-11T00:14:41.132Z,1026.19
2017-03-11T00:15:21.661Z,1026.16
2017-03-11T00:16:02.096Z,1026.18
2017-03-11T00:16:42.615Z,1026.24
2017-03-11T00:17:23.115Z,1026.21
2017-03-11T00:18:03.595Z,1026.2
2017-03-11T00:18:44.088Z,1026.21
2017-03-11T00:19:24.570Z,1026.19
2017-03-11T00:20:05.044Z,1026.21
2017-03-11T00:20:45.548Z,1026.18
2017-03-11T00:21:26.051Z,1026.19
2017-03-11T00:22:06.516Z,1026.18
2017-03-11T00:22:46.988Z,1026.15
2017-03-11T00:23:27.493Z,1026.16
2017-03-11T00:24:07.968Z,1026.16
2017-03-11T00:24:48.475Z,1026.15
2017-03-11T00:25:28.953Z,1026.18
2017-03-11T00:26:09.422Z,1026.18
2017-03-11T00:26:49.871Z,1026.22
2017-03-11T00:27:30.380Z,1026.2
2017-03-11T00:28:10.880Z,1026.2
2017-03-11T00:28:51.351Z,1026.25
2017-03-11T00:29:31.855Z,1026.24
2017-03-11T00:30:12.324Z,1026.23
2017-03-11T00:30:52.832Z,1026.25
2017-03-11T00:31:33.334Z,1026.23
2017-03-11T00:32:13.821Z,1026.21
2017-03-11T00:32:54.288Z,1026.21
2017-03-11T00:33:34.769Z,1026.2
2017-03-11T00:34:15.268Z,1026.23
2017-03-11T00:34:55.733Z,1026.23
2017-03-11T00:35:36.219Z,1026.27
2017-03-11T00:36:16.695Z,1026.21
2017-03-11T00:36:57.172Z,1026.23
2017-03-11T00:37:37.664Z,1026.23
2017-03-11T00:38:18.157Z,1026.25
2017-03-11T00:38:58.665Z,1026.23
2017-03-11T00:39:39.161Z,1026.24
2017-03-11T00:40:19.639Z,1026.23
2017-03-11T00:41:00.134Z,1026.23
2017-03-11T00:41:40.626Z,1026.23
2017-03-11T00:42:21.131Z,1026.2
2017-03-11T00:43:01.612Z,1026.22
2017-03-11T00:43:42.156Z,1026.25
2017-03-11T00:44:22.666Z,1026.19
2017-03-11T00:45:03.115Z,1026.22
2017-03-11T00:45:43.639Z,1026.22
2017-03-11T00:46:24.104Z,1026.27
2017-03-11T00:47:04.608Z,1026.21
2017-03-11T00:47:45.093Z,1026.23
2017-03-11T00:48:25.547Z,1026.22
2017-03-11T00:49:06.034Z,1026.21
2017-03-11T00:49:46.506Z,1026.15
2017-03-11T00:50:26.996Z,1026.17
2017-03-11T00:51:07.472Z,1026.17
2017-03-11T00:51:47.961Z,1026.19
2017-03-11T00:52:28.450Z,1026.15
2017-03-11T00:53:08.934Z,1026.19
2017-03-11T00:53:49.414Z,1026.15
2017-03-11T00:54:29.906Z,1026.17
2017-03-11T00:55:10.404Z,1026.15
2017-03-11T00:55:50.881Z,1026.18
2017-03-11T00:56:31.356Z,1026.18
2017-03-11T00:57:11.850Z,1026.12
2017-03-11T00:57:52.351Z,1026.09
2017-03-11T00:58:32.816Z,1026.12
2017-03-11T00:59:13.336Z,1026.08
2017-03-11T00:59:53.819Z,1026.11
2017-03-11T01:00:34.298Z,1026.12
2017-03-11T01:01:14.788Z,1026.08
2017-03-11T01:01:55.232Z,1026.08
2017-03-11T01:02:35.720Z,1026.08
2017-03-11T01:03:16.183Z,1026.09
2017-03-11T01:03:56.675Z,1026.07
2017-03-11T01:04:37.189Z,1026.1
2017-03-11T01:05:17.652Z,1026.05
2017-03-11T01:05:58.139Z,1026.03
2017-03-11T01:06:38.624Z,1026.01
2017-03-11T01:07:19.115Z,1026
2017-03-11T01:07:59.599Z,1025.99
2017-03-11T01:08:40.114Z,1025.99
2017-03-11T01:09:20.602Z,1025.96
2017-03-11T01:10:01.118Z,1025.96
2017-03-11T01:10:41.587Z,1025.94
2017-03-11T01:11:22.084Z,1025.94
2017-03-11T01:12:02.614Z,1025.94
2017-03-11T01:12:43.077Z,1025.88
2017-03-11T01:13:23.547Z,1025.86
2017-03-11T01:14:04.050Z,1025.91
2017-03-11T01:14:44.547Z,1025.9
2017-03-11T01:15:25.005Z,1025.87
2017-03-11T01:16:05.472Z,1025.89
2017-03-11T01:16:45.950Z,1025.89
2017-03-11T01:17:26.421Z,1025.87
2017-03-11T01:18:06.935Z,1025.86
2017-03-11T01:18:47.420Z,1025.86
2017-03-11T01:19:27.859Z,1025.86
2017-03-11T01:20:08.410Z,1025.87
2017-03-11T01:20:48.888Z,1025.86
2017-03-11T01:21:29.378Z,1025.83
2017-03-11T01:22:09.857Z,1025.85
2017-03-11T01:22:50.347Z,1025.82
2017-03-11T01:23:30.797Z,1025.83
2017-03-11T01:24:11.309Z,1025.83
2017-03-11T01:24:51.782Z,1025.79
2017-03-11T01:25:32.289Z,1025.83
2017-03-11T01:26:12.759Z,1025.81
2017-03-11T01:26:53.248Z,1025.78
2017-03-11T01:27:33.758Z,1025.78
2017-03-11T01:28:14.203Z,1025.77
2017-03-11T01:28:54.712Z,1025.77
2017-03-11T01:29:35.203Z,1025.76
2017-03-11T01:30:15.691Z,1025.72
2017-03-11T01:30:56.151Z,1025.73
2017-03-11T01:31:36.651Z,1025.71
2017-03-11T01:32:17.158Z,1025.69
2017-03-11T01:32:57.659Z,1025.69
2017-03-11T01:33:38.138Z,1025.66
2017-03-11T01:34:18.630Z,1025.65
2017-03-11T01:34:59.161Z,1025.67
2017-03-11T01:35:39.646Z,1025.67
2017-03-11T01:36:20.118Z,1025.64
2017-03-11T01:37:00.577Z,1025.64
2017-03-11T01:37:41.069Z,1025.67
2017-03-11T01:38:21.569Z,1025.63
2017-03-11T01:39:02.098Z,1025.6
2017-03-11T01:39:42.552Z,1025.66
2017-03-11T01:40:23.010Z,1025.66
2017-03-11T01:41:03.497Z,1025.65
2017-03-11T01:41:43.983Z,1025.63
2017-03-11T01:42:24.474Z,1025.63
2017-03-11T01:43:04.934Z,1025.62
2017-03-11T01:43:45.414Z,1025.61
2017-03-11T01:44:25.896Z,1025.63
2017-03-11T01:45:06.375Z,1025.63
2017-03-11T01:45:46.967Z,1025.59
2017-03-11T01:46:27.464Z,1025.6
2017-03-11T01:47:07.920Z,1025.63
2017-03-11T01:47:48.394Z,1025.68
2017-03-11T01:48:28.848Z,1025.63
2017-03-11T01:49:09.334Z,1025.64
2017-03-11T01:49:49.794Z,1025.61
2017-03-11T01:50:30.277Z,1025.62
2017-03-11T01:51:10.733Z,1025.61
2017-03-11T01:51:51.237Z,1025.61
2017-03-11T01:52:31.747Z,1025.58
2017-03-11T01:53:12.207Z,1025.59
2017-03-11T01:53:52.678Z,1025.57
2017-03-11T01:54:33.178Z,1025.6
2017-03-11T01:55:13.669Z,1025.62
2017-03-11T01:55:54.161Z,1025.61
2017-03-11T01:56:34.639Z,1025.65
2017-03-11T01:57:15.148Z,1025.62
2017-03-11T01:57:55.620Z,1025.62
2017-03-11T01:58:36.093Z,1025.62
2017-03-11T01:59:16.564Z,1025.64
2017-03-11T01:59:57.065Z,1025.63
2017-03-11T02:00:37.528Z,1025.62
2017-03-11T02:01:18.063Z,1025.64
2017-03-11T02:01:58.490Z,1025.67
2017-03-11T02:02:38.996Z,1025.64
2017-03-11T02:03:19.497Z,1025.63
2017-03-11T02:03:59.980Z,1025.67
2017-03-11T02:04:40.485Z,1025.68
2017-03-11T02:05:20.953Z,1025.68
2017-03-11T02:06:01.438Z,1025.68
2017-03-11T02:06:41.904Z,1025.64
2017-03-11T02:07:22.393Z,1025.7
2017-03-11T02:08:02.864Z,1025.65
2017-03-11T02:08:43.353Z,1025.68
2017-03-11T02:09:23.825Z,1025.67
2017-03-11T02:10:04.314Z,1025.69
2017-03-11T02:10:44.836Z,1025.67
2017-03-11T02:11:25.299Z,1025.62
2017-03-11T02:12:05.791Z,1025.6
2017-03-11T02:12:46.245Z,1025.63
2017-03-11T02:13:26.714Z,1025.61
2017-03-11T02:14:07.216Z,1025.6
2017-03-11T02:14:47.728Z,1025.59
2017-03-11T02:15:28.224Z,1025.65
2017-03-11T02:16:08.720Z,1025.64
2017-03-11T02:16:49.178Z,1025.66
2017-03-11T02:17:29.672Z,1025.6
2017-03-11T02:18:10.122Z,1025.59
2017-03-11T02:18:50.632Z,1025.63
2017-03-11T02:19:31.105Z,1025.59
2017-03-11T02:20:11.593Z,1025.54
2017-03-11T02:20:52.081Z,1025.55
2017-03-11T02:21:32.575Z,1025.54
2017-03-11T02:22:13.060Z,1025.55
2017-03-11T02:22:53.588Z,1025.52
2017-03-11T02:23:34.042Z,1025.52
2017-03-11T02:24:14.536Z,1025.55
2017-03-11T02:24:55.028Z,1025.5
2017-03-11T02:25:35.490Z,1025.53
2017-03-11T02:26:16.004Z,1025.52
2017-03-11T02:26:56.497Z,1025.52
2017-03-11T02:27:36.982Z,1025.5
2017-03-11T02:28:17.468Z,1025.48
2017-03-11T02:28:57.968Z,1025.47
2017-03-11T02:29:38.505Z,1025.48
2017-03-11T02:30:18.991Z,1025.44
2017-03-11T02:30:59.529Z,1025.48
2017-03-11T02:31:39.998Z,1025.44
2017-03-11T02:32:20.461Z,1025.43
2017-03-11T02:33:00.935Z,1025.42
2017-03-11T02:33:41.389Z,1025.41
2017-03-11T02:34:21.889Z,1025.39
2017-03-11T02:35:02.369Z,1025.38
2017-03-11T02:35:42.847Z,1025.36
2017-03-11T02:36:23.352Z,1025.36
2017-03-11T02:37:03.873Z,1025.36
2017-03-11T02:37:44.361Z,1025.35
2017-03-11T02:38:24.806Z,1025.36
2017-03-11T02:39:05.290Z,1025.34
2017-03-11T02:39:45.773Z,1025.38
2017-03-11T02:40:26.264Z,1025.36
2017-03-11T02:41:06.717Z,1025.41
2017-03-11T02:41:47.180Z,1025.42
2017-03-11T02:42:27.702Z,1025.42
2017-03-11T02:43:08.192Z,1025.41
2017-03-11T02:43:48.695Z,1025.44
2017-03-11T02:44:29.148Z,1025.45
2017-03-11T02:45:09.638Z,1025.47
2017-03-11T02:45:50.106Z,1025.51
2017-03-11T02:46:30.596Z,1025.48
2017-03-11T02:47:11.041Z,1025.49
2017-03-11T02:47:51.542Z,1025.5
2017-03-11T02:48:32.028Z,1025.51
2017-03-11T02:49:12.532Z,1025.52
2017-03-11T02:49:53.026Z,1025.54
2017-03-11T02:50:33.487Z,1025.5
2017-03-11T02:51:13.973Z,1025.52
2017-03-11T02:51:54.477Z,1025.55
2017-03-11T02:52:34.950Z,1025.53
2017-03-11T02:53:15.407Z,1025.54
2017-03-11T02:53:55.896Z,1025.55
2017-03-11T02:54:36.382Z,1025.56
2017-03-11T02:55:16.860Z,1025.56
2017-03-11T02:55:57.378Z,1025.54
2017-03-11T02:56:37.828Z,1025.55
2017-03-11T02:57:18.327Z,1025.53
2017-03-11T02:57:58.795Z,1025.5
2017-03-11T02:58:39.293Z,1025.46
2017-03-11T02:59:19.805Z,1025.53
2017-03-11T03:00:00.299Z,1025.5
2017-03-11T03:00:40.805Z,1025.48
2017-03-11T03:01:21.269Z,1025.46
2017-03-11T03:02:01.780Z,1025.48
2017-03-11T03:02:42.329Z,1025.52
2017-03-11T03:03:22.811Z,1025.47
2017-03-11T03:04:03.278Z,1025.47
2017-03-11T03:04:43.743Z,1025.49
2017-03-11T03:05:24.208Z,1025.5
2017-03-11T03:06:04.717Z,1025.47
2017-03-11T03:06:45.198Z,1025.52
2017-03-11T03:07:25.670Z,1025.54
2017-03-11T03:08:06.130Z,1025.52
2017-03-11T03:08:46.643Z,1025.53
2017-03-11T03:09:27.111Z,1025.54
2017-03-11T03:10:07.582Z,1025.5
2017-03-11T03:10:48.050Z,1025.48
2017-03-11T03:11:28.543Z,1025.45
2017-03-11T03:12:09.240Z,1025.47
2017-03-11T03:12:49.729Z,1025.47
2017-03-11T03:13:30.187Z,1025.45
2017-03-11T03:14:10.668Z,1025.49
2017-03-11T03:14:51.143Z,1025.46
2017-03-11T03:15:31.628Z,1025.43
2017-03-11T03:16:12.075Z,1025.41
2017-03-11T03:16:52.563Z,1025.43
2017-03-11T03:17:33.049Z,1025.43
2017-03-11T03:18:13.554Z,1025.39
2017-03-11T03:18:54.011Z,1025.39
2017-03-11T03:19:34.529Z,1025.39
2017-03-11T03:20:15.018Z,1025.4
2017-03-11T03:20:55.501Z,1025.41
2017-03-11T03:21:35.995Z,1025.37
2017-03-11T03:22:16.489Z,1025.42
2017-03-11T03:22:56.955Z,1025.4
2017-03-11T03:23:37.447Z,1025.43
2017-03-11T03:24:17.939Z,1025.44
2017-03-11T03:24:58.427Z,1025.41
2017-03-11T03:25:38.903Z,1025.41
2017-03-11T03:26:19.400Z,1025.41
2017-03-11T03:26:59.858Z,1025.38
2017-03-11T03:27:40.337Z,1025.4
2017-03-11T03:28:20.831Z,1025.37
2017-03-11T03:29:01.312Z,1025.37
2017-03-11T03:29:41.775Z,1025.35
2017-03-11T03:30:22.269Z,1025.37
2017-03-11T03:31:02.752Z,1025.32
2017-03-11T03:31:43.205Z,1025.29
2017-03-11T03:32:23.711Z,1025.31
2017-03-11T03:33:04.215Z,1025.33
2017-03-11T03:33:44.657Z,1025.26
2017-03-11T03:34:25.132Z,1025.23
2017-03-11T03:35:05.626Z,1025.22
2017-03-11T03:35:46.091Z,1025.27
2017-03-11T03:36:26.579Z,1025.23
2017-03-11T03:37:07.051Z,1025.21
2017-03-11T03:37:47.546Z,1025.24
2017-03-11T03:38:28.046Z,1025.25
2017-03-11T03:39:08.572Z,1025.19
2017-03-11T03:39:49.087Z,1025.22
2017-03-11T03:40:29.592Z,1025.24
2017-03-11T03:41:10.018Z,1025.28
2017-03-11T03:41:50.522Z,1025.24
2017-03-11T03:42:30.968Z,1025.25
2017-03-11T03:43:11.464Z,1025.28
2017-03-11T03:43:52.001Z,1025.28
2017-03-11T03:44:32.454Z,1025.28
2017-03-11T03:45:12.918Z,1025.31
2017-03-11T03:45:53.378Z,1025.32
2017-03-11T03:46:33.856Z,1025.3
2017-03-11T03:47:14.376Z,1025.32
2017-03-11T03:47:54.894Z,1025.39
2017-03-11T03:48:35.384Z,1025.36
2017-03-11T03:49:15.845Z,1025.36
2017-03-11T03:49:56.329Z,1025.35
2017-03-11T03:50:36.832Z,1025.38
2017-03-11T03:51:17.300Z,1025.34
2017-03-11T03:51:57.779Z,1025.36
2017-03-11T03:52:38.293Z,1025.36
2017-03-11T03:53:18.787Z,1025.35
2017-03-11T03:53:59.238Z,1025.33
2017-03-11T03:54:39.715Z,1025.32
2017-03-11T03:55:20.210Z,1025.35
2017-03-11T03:56:00.693Z,1025.33
2017-03-11T03:56:41.180Z,1025.35
2017-03-11T03:57:21.703Z,1025.35
2017-03-11T03:58:02.182Z,1025.34
2017-03-11T03:58:42.657Z,1025.35
2017-03-11T03:59:23.132Z,1025.29
2017-03-11T04:00:03.599Z,1025.28
2017-03-11T04:00:44.110Z,1025.25
2017-03-11T04:01:24.622Z,1025.23
2017-03-11T04:02:05.056Z,1025.25
2017-03-11T04:02:45.571Z,1025.22
2017-03-11T04:03:26.063Z,1025.23
2017-03-11T04:04:06.529Z,1025.23
2017-03-11T04:04:46.983Z,1025.26
2017-03-11T04:05:27.490Z,1025.28
2017-03-11T04:06:07.957Z,1025.24
2017-03-11T04:06:48.437Z,1025.29
2017-03-11T04:07:28.958Z,1025.26
2017-03-11T04:08:09.519Z,1025.28
2017-03-11T04:08:49.934Z,1025.32
2017-03-11T04:09:30.432Z,1025.33
2017-03-11T04:10:10.890Z,1025.35
2017-03-11T04:10:51.361Z,1025.34
2017-03-11T04:11:31.817Z,1025.32
2017-03-11T04:12:12.311Z,1025.36
2017-03-11T04:12:52.750Z,1025.36
2017-03-11T04:13:33.244Z,1025.33
2017-03-11T04:14:13.730Z,1025.34
2017-03-11T04:14:54.211Z,1025.35
2017-03-11T04:15:34.697Z,1025.36
2017-03-11T04:16:15.174Z,1025.35
2017-03-11T04:16:55.677Z,1025.37
2017-03-11T04:17:36.120Z,1025.38
2017-03-11T04:18:16.627Z,1025.4
2017-03-11T04:18:57.103Z,1025.39
2017-03-11T04:19:37.608Z,1025.42
2017-03-11T04:20:18.055Z,1025.39
2017-03-11T04:20:58.545Z,1025.37
2017-03-11T04:21:39.031Z,1025.4
2017-03-11T04:22:19.502Z,1025.36
2017-03-11T04:22:59.976Z,1025.39
2017-03-11T04:23:40.459Z,1025.43
2017-03-11T04:24:20.931Z,1025.41
2017-03-11T04:25:01.408Z,1025.33
2017-03-11T04:25:41.907Z,1025.42
2017-03-11T04:26:22.398Z,1025.41
2017-03-11T04:27:02.900Z,1025.4
2017-03-11T04:27:43.394Z,1025.38
2017-03-11T04:28:23.884Z,1025.36
2017-03-11T04:29:04.409Z,1025.36
2017-03-11T04:29:44.861Z,1025.37
2017-03-11T04:30:25.336Z,1025.41
2017-03-11T04:31:05.859Z,1025.41
2017-03-11T04:31:46.353Z,1025.36
2017-03-11T04:32:26.868Z,1025.36
2017-03-11T04:33:07.329Z,1025.35
2017-03-11T04:33:47.845Z,1025.31
2017-03-11T04:34:28.288Z,1025.33
2017-03-11T04:35:08.774Z,1025.33
2017-03-11T04:35:49.263Z,1025.32
2017-03-11T04:36:29.743Z,1025.28
2017-03-11T04:37:10.256Z,1025.27
2017-03-11T04:37:50.767Z,1025.31
2017-03-11T04:38:31.264Z,1025.34
2017-03-11T04:39:11.726Z,1025.31
2017-03-11T04:39:52.266Z,1025.35
2017-03-11T04:40:32.742Z,1025.36
2017-03-11T04:41:13.217Z,1025.36
2017-03-11T04:41:53.709Z,1025.4
2017-03-11T04:42:34.160Z,1025.36
2017-03-11T04:43:14.623Z,1025.34
2017-03-11T04:43:55.131Z,1025.37
2017-03-11T04:44:35.600Z,1025.37
2017-03-11T04:45:16.102Z,1025.36
2017-03-11T04:45:56.579Z,1025.39
2017-03-11T04:46:37.063Z,1025.39
2017-03-11T04:47:17.548Z,1025.37
2017-03-11T04:47:58.038Z,1025.38
2017-03-11T04:48:38.510Z,1025.38
2017-03-11T04:49:18.996Z,1025.41
2017-03-11T04:49:59.495Z,1025.38
2017-03-11T04:50:40.003Z,1025.41
2017-03-11T04:51:20.484Z,1025.37
2017-03-11T04:52:00.960Z,1025.38
2017-03-11T04:52:41.469Z,1025.36
2017-03-11T04:53:22.015Z,1025.38
2017-03-11T04:54:02.491Z,1025.31
2017-03-11T04:54:42.980Z,1025.3
2017-03-11T04:55:23.473Z,1025.37
2017-03-11T04:56:03.942Z,1025.35
2017-03-11T04:56:44.419Z,1025.28
2017-03-11T04:57:24.873Z,1025.26
2017-03-11T04:58:05.406Z,1025.3
2017-03-11T04:58:45.849Z,1025.24
2017-03-11T04:59:26.309Z,1025.23
2017-03-11T05:00:06.807Z,1025.26
2017-03-11T05:00:47.255Z,1025.22
2017-03-11T05:01:27.737Z,1025.16
2017-03-11T05:02:08.225Z,1025.15
2017-03-11T05:02:48.706Z,1025.16
2017-03-11T05:03:29.170Z,1025.18
2017-03-11T05:04:09.635Z,1025.18
2017-03-11T05:04:50.099Z,1025.22
2017-03-11T05:05:30.609Z,1025.22
2017-03-11T05:06:11.101Z,1025.17
2017-03-11T05:06:51.592Z,1025.17
2017-03-11T05:07:32.085Z,1025.13
2017-03-11T05:08:12.563Z,1025.12
2017-03-11T05:08:53.081Z,1025.1
2017-03-11T05:09:33.553Z,1025.1
2017-03-11T05:10:14.061Z,1025.09
2017-03-11T05:10:54.610Z,1025.07
2017-03-11T05:11:35.065Z,1025.06
2017-03-11T05:12:15.565Z,1025.07
2017-03-11T05:12:56.066Z,1025.04
2017-03-11T05:13:36.542Z,1025.06
2017-03-11T05:14:17.013Z,1025.06
2017-03-11T05:14:57.534Z,1025.11
2017-03-11T05:15:37.999Z,1025.07
2017-03-11T05:16:18.520Z,1025.05
2017-03-11T05:16:58.979Z,1025.05
2017-03-11T05:17:39.466Z,1025.02
2017-03-11T05:18:19.932Z,1025.04
2017-03-11T05:19:00.447Z,1025.02
2017-03-11T05:19:40.957Z,1025.05
2017-03-11T05:20:21.413Z,1025.02
2017-03-11T05:21:01.932Z,1025.03
2017-03-11T05:21:49.318Z,1025.03
2017-03-11T05:22:29.783Z,1025.02
2017-03-11T05:23:10.285Z,1025.06
2017-03-11T05:23:50.765Z,1025.04
2017-03-11T05:24:31.282Z,1025.04
2017-03-11T05:25:11.762Z,1025.01
2017-03-11T05:25:52.279Z,1025
2017-03-11T05:26:32.756Z,1024.97
2017-03-11T05:27:13.269Z,1024.99
2017-03-11T05:27:53.741Z,1024.98
2017-03-11T05:28:34.226Z,1024.96
2017-03-11T05:29:14.693Z,1024.96
2017-03-11T05:29:55.227Z,1024.96
2017-03-11T05:30:35.656Z,1024.91
2017-03-11T05:31:16.159Z,1024.9
2017-03-11T05:31:56.633Z,1024.9
2017-03-11T05:32:37.146Z,1024.87
2017-03-11T05:33:17.618Z,1024.86
2017-03-11T05:33:58.123Z,1024.89
2017-03-11T05:34:38.623Z,1024.87
2017-03-11T05:35:19.113Z,1024.91
2017-03-11T05:35:59.593Z,1024.85
2017-03-11T05:36:40.092Z,1024.9
2017-03-11T05:37:20.592Z,1024.91
2017-03-11T05:38:01.081Z,1024.91
2017-03-11T05:38:41.619Z,1024.94
2017-03-11T05:39:22.148Z,1024.94
2017-03-11T05:40:02.683Z,1024.93
2017-03-11T05:40:43.131Z,1024.94
2017-03-11T05:41:23.596Z,1024.96
2017-03-11T05:42:04.083Z,1024.93
2017-03-11T05:42:44.607Z,1024.97
2017-03-11T05:43:25.053Z,1024.97
2017-03-11T05:44:05.573Z,1024.97
2017-03-11T05:44:46.060Z,1024.99
2017-03-11T05:45:26.560Z,1025.04
2017-03-11T05:46:07.094Z,1024.99
2017-03-11T05:46:47.532Z,1024.99
2017-03-11T05:47:28.021Z,1025.02
2017-03-11T05:48:08.504Z,1025.03
2017-03-11T05:48:48.976Z,1025.01
2017-03-11T05:49:29.466Z,1025.05
2017-03-11T05:50:09.944Z,1025.03
2017-03-11T05:50:50.415Z,1024.98
2017-03-11T05:51:30.901Z,1025.05
2017-03-11T05:52:11.396Z,1025.03
2017-03-11T05:52:51.906Z,1025.06
2017-03-11T05:53:32.366Z,1025.07
2017-03-11T05:54:12.891Z,1025.05
2017-03-11T05:54:53.359Z,1025.03
2017-03-11T05:55:33.821Z,1025.06
2017-03-11T05:56:14.405Z,1025.07
2017-03-11T05:56:54.881Z,1025.11
2017-03-11T05:57:35.382Z,1025.07
2017-03-11T05:58:15.855Z,1025.05
2017-03-11T05:58:56.381Z,1025.13
2017-03-11T05:59:36.920Z,1025.09
2017-03-11T06:00:17.417Z,1025.14
2017-03-11T06:00:57.905Z,1025.11
2017-03-11T06:01:38.414Z,1025.12
2017-03-11T06:02:18.940Z,1025.09
2017-03-11T06:02:59.410Z,1025.07
2017-03-11T06:03:39.886Z,1025.05
2017-03-11T06:04:20.399Z,1025.08
2017-03-11T06:05:00.869Z,1025.08
2017-03-11T06:05:41.369Z,1025.01
2017-03-11T06:06:21.850Z,1025.07
2017-03-11T06:07:02.360Z,1025.04
2017-03-11T06:07:42.823Z,1025.07
2017-03-11T06:08:23.295Z,1025.08
2017-03-11T06:09:03.792Z,1025.03
2017-03-11T06:09:44.271Z,1025.05
2017-03-11T06:10:24.750Z,1025.09
2017-03-11T06:11:05.214Z,1025.04
2017-03-11T06:11:45.701Z,1025.08
2017-03-11T06:12:26.209Z,1025.08
2017-03-11T06:13:06.679Z,1025.07
2017-03-11T06:13:47.168Z,1025.1
2017-03-11T06:14:27.641Z,1025.06
2017-03-11T06:15:10.024Z,1025.09
2017-03-11T06:15:50.531Z,1025.13
2017-03-11T06:16:31.019Z,1025.12
2017-03-11T06:17:11.474Z,1025.17
2017-03-11T06:17:51.971Z,1025.1
2017-03-11T06:20:11.239Z,1025.15
2017-03-11T06:20:51.708Z,1025.18
2017-03-11T06:21:32.199Z,1025.17
2017-03-11T06:22:12.679Z,1025.19
2017-03-11T06:22:53.208Z,1025.15
2017-03-11T06:23:33.676Z,1025.2
2017-03-11T06:24:14.201Z,1025.21
2017-03-11T06:24:54.660Z,1025.24
2017-03-11T06:25:35.105Z,1025.24
2017-03-11T06:26:15.605Z,1025.28
2017-03-11T06:26:56.095Z,1025.26
2017-03-11T06:27:36.577Z,1025.24
2017-03-11T06:28:17.020Z,1025.26
2017-03-11T06:28:57.497Z,1025.29
2017-03-11T06:29:37.966Z,1025.29
2017-03-11T06:30:18.470Z,1025.29
2017-03-11T06:30:58.948Z,1025.29
2017-03-11T06:31:39.424Z,1025.32
2017-03-11T06:32:19.920Z,1025.34
2017-03-11T06:33:00.376Z,1025.34
2017-03-11T06:33:40.831Z,1025.36
2017-03-11T06:34:21.327Z,1025.37
2017-03-11T06:35:01.779Z,1025.35
2017-03-11T06:35:42.267Z,1025.37
2017-03-11T06:36:22.717Z,1025.39
2017-03-11T06:37:03.211Z,1025.41
2017-03-11T06:37:43.673Z,1025.4
2017-03-11T06:38:24.114Z,1025.37
2017-03-11T06:39:04.583Z,1025.41
2017-03-11T06:39:45.095Z,1025.38
2017-03-11T06:40:25.580Z,1025.44
2017-03-11T06:41:06.080Z,1025.45
2017-03-11T06:41:46.564Z,1025.41
2017-03-11T06:42:27.038Z,1025.42
2017-03-11T06:43:07.527Z,1025.41
2017-03-11T06:43:48.064Z,1025.43
2017-03-11T06:44:28.551Z,1025.43
2017-03-11T06:45:09.057Z,1025.46
2017-03-11T06:45:49.557Z,1025.46
2017-03-11T06:46:30.034Z,1025.49
2017-03-11T06:47:10.545Z,1025.44
2017-03-11T06:47:51.003Z,1025.5
2017-03-11T06:48:31.511Z,1025.5
2017-03-11T06:49:11.939Z,1025.44
2017-03-11T06:49:52.447Z,1025.49
2017-03-11T06:50:32.983Z,1025.49
2017-03-11T06:51:13.429Z,1025.47
2017-03-11T06:51:53.926Z,1025.52
2017-03-11T06:52:34.394Z,1025.5
2017-03-11T06:53:14.953Z,1025.51
2017-03-11T06:53:55.426Z,1025.54
2017-03-11T06:54:35.925Z,1025.53
2017-03-11T06:55:16.401Z,1025.52
2017-03-11T06:55:56.854Z,1025.55
2017-03-11T06:56:37.328Z,1025.57
2017-03-11T06:57:17.803Z,1025.55
2017-03-11T06:57:58.306Z,1025.55
2017-03-11T06:58:38.766Z,1025.56
2017-03-11T06:59:19.231Z,1025.58
2017-03-11T06:59:59.726Z,1025.56
2017-03-11T07:00:40.214Z,1025.62
2017-03-11T07:01:20.673Z,1025.63
2017-03-11T07:02:01.157Z,1025.68
2017-03-11T07:02:41.630Z,1025.68
2017-03-11T07:03:22.179Z,1025.66
2017-03-11T07:04:02.590Z,1025.71
2017-03-11T07:04:43.081Z,1025.77
2017-03-11T07:05:23.578Z,1025.72
2017-03-11T07:06:04.057Z,1025.73
2017-03-11T07:06:44.560Z,1025.75
2017-03-11T07:07:25.068Z,1025.78
2017-03-11T07:08:05.563Z,1025.72
2017-03-11T07:08:46.029Z,1025.69
2017-03-11T07:09:26.493Z,1025.72
2017-03-11T07:10:06.984Z,1025.68
2017-03-11T07:10:49.128Z,1025.69
2017-03-11T07:11:29.624Z,1025.71
2017-03-11T07:12:10.052Z,1025.72
2017-03-11T07:12:50.545Z,1025.71
2017-03-11T07:13:31.012Z,1025.72
2017-03-11T07:14:11.506Z,1025.7
2017-03-11T07:14:52.009Z,1025.67
2017-03-11T07:15:32.517Z,1025.7
2017-03-11T07:16:12.970Z,1025.67
2017-03-11T07:16:53.465Z,1025.66
2017-03-11T07:17:33.966Z,1025.64
2017-03-11T07:18:14.527Z,1025.65
2017-03-11T07:18:54.987Z,1025.67
2017-03-11T07:19:35.482Z,1025.65
2017-03-11T07:20:15.971Z,1025.64
2017-03-11T07:20:56.469Z,1025.65
2017-03-11T07:21:37.005Z,1025.67
2017-03-11T07:22:17.452Z,1025.66
2017-03-11T07:22:57.946Z,1025.69
2017-03-11T07:23:38.454Z,1025.66
2017-03-11T07:24:18.952Z,1025.68
2017-03-11T07:24:59.415Z,1025.63
2017-03-11T07:25:39.913Z,1025.63
2017-03-11T07:26:20.385Z,1025.66
2017-03-11T07:27:00.899Z,1025.63
2017-03-11T07:27:41.425Z,1025.64
2017-03-11T07:28:21.947Z,1025.65
2017-03-11T07:29:02.402Z,1025.6
2017-03-11T07:29:42.944Z,1025.6
2017-03-11T07:30:23.424Z,1025.59
2017-03-11T07:31:03.874Z,1025.59
2017-03-11T07:31:44.346Z,1025.58
2017-03-11T07:32:24.857Z,1025.54
2017-03-11T07:33:05.336Z,1025.53
2017-03-11T07:33:45.855Z,1025.52
2017-03-11T07:34:26.302Z,1025.55
2017-03-11T07:35:06.794Z,1025.5
2017-03-11T07:35:47.291Z,1025.51
2017-03-11T07:36:27.754Z,1025.55
2017-03-11T07:37:08.233Z,1025.5
2017-03-11T07:37:48.749Z,1025.49
2017-03-11T07:38:29.222Z,1025.52
2017-03-11T07:39:09.741Z,1025.5
2017-03-11T07:39:50.197Z,1025.5
2017-03-11T07:40:30.711Z,1025.48
2017-03-11T07:41:11.209Z,1025.47
2017-03-11T07:41:51.713Z,1025.51
2017-03-11T07:42:32.217Z,1025.52
2017-03-11T07:43:12.677Z,1025.55
2017-03-11T07:43:53.205Z,1025.55
2017-03-11T07:44:33.690Z,1025.58
2017-03-11T07:45:14.179Z,1025.55
2017-03-11T07:45:54.675Z,1025.58
2017-03-11T07:46:35.172Z,1025.59
2017-03-11T07:47:15.701Z,1025.58
2017-03-11T07:47:56.223Z,1025.51
2017-03-11T07:48:36.676Z,1025.54
2017-03-11T07:49:17.200Z,1025.5
2017-03-11T07:49:57.699Z,1025.56
2017-03-11T07:50:38.196Z,1025.59
2017-03-11T07:51:18.657Z,1025.53
2017-03-11T07:51:59.127Z,1025.58
2017-03-11T07:52:39.674Z,1025.59
2017-03-11T07:53:20.147Z,1025.56
2017-03-11T07:54:00.605Z,1025.59
2017-03-11T07:54:41.085Z,1025.59
2017-03-11T07:55:21.555Z,1025.57
2017-03-11T07:56:02.036Z,1025.6
2017-03-11T07:56:42.523Z,1025.58
2017-03-11T07:57:23.070Z,1025.58
2017-03-11T07:58:03.491Z,1025.59
2017-03-11T07:58:43.978Z,1025.59
2017-03-11T07:59:24.449Z,1025.58
2017-03-11T08:00:05.013Z,1025.6
2017-03-11T08:00:45.455Z,1025.58
2017-03-11T08:01:25.913Z,1025.55
2017-03-11T08:02:06.432Z,1025.6
2017-03-11T08:02:46.913Z,1025.57
2017-03-11T08:03:27.398Z,1025.54
2017-03-11T08:04:07.893Z,1025.56
2017-03-11T08:04:48.398Z,1025.57
2017-03-11T08:05:28.883Z,1025.55
2017-03-11T08:06:09.363Z,1025.49
2017-03-11T08:06:49.853Z,1025.52
2017-03-11T08:07:30.357Z,1025.51
2017-03-11T08:08:10.820Z,1025.54
2017-03-11T08:08:51.301Z,1025.53
2017-03-11T08:09:31.774Z,1025.52
2017-03-11T08:10:12.233Z,1025.52
2017-03-11T08:10:52.761Z,1025.58
2017-03-11T08:11:33.232Z,1025.55
2017-03-11T08:12:13.686Z,1025.56
2017-03-11T08:12:54.131Z,1025.56